Time;durP1;ratioP1;P1;durP2;ratioP2;P2;SDS_P1;SDS_P2;PMS_P1;PMS_P2;Temp;Humidity;BMP_temperature;BMP_pressure;BME280_temperature;BME280_humidity;BME280_pressure;Samples;Min_cycle;Max_cycle;Signal;HPM_P1;HPM_P2
2024/03/11 00:01:06;;;;;;;9.02;7.90;;;;;;;;;;5022002;28;59303;-71
2024/03/11 00:03:31;;;;;;;9.38;7.68;;;;;;;;;;5034429;28;60121;-72
2024/03/11 00:05:56;;;;;;;9.77;7.32;;;;;;;;;;5037793;28;59427;-71
2024/03/11 00:08:22;;;;;;;7.73;6.93;;;;;;;;;;5035468;28;59232;-71
2024/03/11 00:10:55;;;;;;;8.52;6.70;;;;;;;;;;5036987;28;61112;-71
2024/03/11 00:13:22;;;;;;;7.70;6.63;;;;;;;;;;5036778;27;59824;-71
2024/03/11 00:15:50;;;;;;;10.77;7.47;;;;;;;;;;5038998;28;59274;-71
2024/03/11 00:18:16;;;;;;;8.27;7.47;;;;;;;;;;5035706;28;60338;-71
2024/03/11 00:20:41;;;;;;;10.35;7.70;;;;;;;;;;5019106;28;59280;-71
2024/03/11 00:23:07;;;;;;;9.37;7.30;;;;;;;;;;5021637;28;59335;-71
2024/03/11 00:25:32;;;;;;;10.43;7.03;;;;;;;;;;5019401;28;59281;-70
2024/03/11 00:27:59;;;;;;;7.40;6.57;;;;;;;;;;5030208;28;59405;-70
2024/03/11 00:30:24;;;;;;;7.18;6.43;;;;;;;;;;5039184;27;60350;-70
2024/03/11 00:32:52;;;;;;;7.27;6.53;;;;;;;;;;5036041;28;59817;-70
2024/03/11 00:35:18;;;;;;;7.88;6.63;;;;;;;;;;5015220;28;59607;-70
2024/03/11 00:37:45;;;;;;;8.13;6.05;;;;;;;;;;5003448;28;60231;-70
2024/03/11 00:40:10;;;;;;;7.60;6.35;;;;;;;;;;5009823;28;59299;-70
2024/03/11 00:42:38;;;;;;;6.65;6.05;;;;;;;;;;5022255;28;59258;-70
2024/03/11 00:45:04;;;;;;;8.23;6.55;;;;;;;;;;5011970;28;59113;-70
2024/03/11 00:47:29;;;;;;;8.52;7.05;;;;;;;;;;5016813;28;59265;-70
2024/03/11 00:49:54;;;;;;;8.67;6.13;;;;;;;;;;5012983;28;61986;-69
2024/03/11 00:52:20;;;;;;;6.47;5.87;;;;;;;;;;5015666;28;59213;-70
2024/03/11 00:54:45;;;;;;;8.10;6.97;;;;;;;;;;5014350;28;59115;-70
2024/03/11 00:57:11;;;;;;;7.87;7.07;;;;;;;;;;5016336;28;61183;-70
2024/03/11 00:59:36;;;;;;;6.28;5.65;;;;;;;;;;5018603;28;59802;-69
2024/03/11 01:02:02;;;;;;;6.43;5.77;;;;;;;;;;5013399;28;59303;-70
2024/03/11 01:04:27;;;;;;;7.00;5.95;;;;;;;;;;5015887;28;59405;-70
2024/03/11 01:06:52;;;;;;;6.32;5.63;;;;;;;;;;5021427;28;59307;-70
2024/03/11 01:09:20;;;;;;;6.80;6.13;;;;;;;;;;5032014;28;59765;-70
2024/03/11 01:11:45;;;;;;;6.70;6.03;;;;;;;;;;5032529;28;59326;-70
2024/03/11 01:14:11;;;;;;;7.78;5.93;;;;;;;;;;5012646;28;59255;-70
2024/03/11 01:16:37;;;;;;;6.67;5.97;;;;;;;;;;5026625;28;59666;-70
2024/03/11 01:19:02;;;;;;;6.55;5.75;;;;;;;;;;5032933;28;59327;-70
2024/03/11 01:21:28;;;;;;;6.82;6.13;;;;;;;;;;5031004;28;59438;-70
2024/03/11 01:23:53;;;;;;;8.40;6.05;;;;;;;;;;5027511;28;59152;-70
2024/03/11 01:26:19;;;;;;;6.10;5.53;;;;;;;;;;5032593;28;59268;-70
2024/03/11 01:28:44;;;;;;;7.07;5.72;;;;;;;;;;5029858;28;59626;-70
2024/03/11 01:31:10;;;;;;;7.60;6.60;;;;;;;;;;5026227;28;59243;-70
2024/03/11 01:33:36;;;;;;;7.65;6.32;;;;;;;;;;5029225;28;59295;-70
2024/03/11 01:36:01;;;;;;;5.88;5.25;;;;;;;;;;5032617;28;61615;-70
2024/03/11 01:38:26;;;;;;;6.95;5.95;;;;;;;;;;5028317;28;59789;-70
2024/03/11 01:40:52;;;;;;;5.47;4.97;;;;;;;;;;5027940;28;59359;-70
2024/03/11 01:43:17;;;;;;;6.17;5.03;;;;;;;;;;5029811;28;59991;-70
2024/03/11 01:45:42;;;;;;;5.67;5.13;;;;;;;;;;5031619;28;59266;-70
2024/03/11 01:48:09;;;;;;;5.67;5.07;;;;;;;;;;5031783;28;61679;-70
2024/03/11 01:50:35;;;;;;;6.50;5.78;;;;;;;;;;5029006;28;59415;-70
2024/03/11 01:53:03;;;;;;;7.00;5.47;;;;;;;;;;5027460;28;59235;-70
2024/03/11 01:55:28;;;;;;;;;;;;;;;;;;5031186;28;61212;-70
2024/03/11 01:57:54;;;;;;;7.47;5.13;;;;;;;;;;5031688;28;59838;-70
2024/03/11 02:00:21;;;;;;;6.80;6.10;;;;;;;;;;5028844;28;59340;-70
2024/03/11 02:02:47;;;;;;;6.77;4.73;;;;;;;;;;5031699;28;60320;-70
2024/03/11 02:05:15;;;;;;;6.15;5.55;;;;;;;;;;5025047;28;59962;-70
2024/03/11 02:07:45;;;;;;;5.80;5.30;;;;;;;;;;5027247;28;59282;-70
2024/03/11 02:10:13;;;;;;;6.57;5.57;;;;;;;;;;5030915;28;59347;-70
2024/03/11 02:12:38;;;;;;;;;;;;;;;;;;5029590;28;59290;-70
2024/03/11 02:15:03;;;;;;;5.30;4.80;;;;;;;;;;5028756;28;59999;-70
2024/03/11 02:17:28;;;;;;;6.68;5.63;;;;;;;;;;5003564;28;60622;-70
2024/03/11 02:19:54;;;;;;;5.77;5.23;;;;;;;;;;5026059;28;59509;-70
2024/03/11 02:22:19;;;;;;;6.60;5.07;;;;;;;;;;5024844;28;61764;-70
2024/03/11 02:24:44;;;;;;;5.72;4.47;;;;;;;;;;5029476;28;59246;-70
2024/03/11 02:27:09;;;;;;;5.18;4.70;;;;;;;;;;5033755;28;59285;-70
2024/03/11 02:29:35;;;;;;;5.73;5.13;;;;;;;;;;5029048;28;60040;-70
2024/03/11 02:32:01;;;;;;;5.22;4.72;;;;;;;;;;5024828;28;59066;-70
2024/03/11 02:34:26;;;;;;;5.38;4.88;;;;;;;;;;5006625;28;59987;-70
2024/03/11 02:36:51;;;;;;;5.18;4.32;;;;;;;;;;5000688;28;59244;-70
2024/03/11 02:39:19;;;;;;;5.05;4.55;;;;;;;;;;5014634;28;59318;-70
2024/03/11 02:41:44;;;;;;;;;;;;;;;;;;5033957;28;60444;-70
2024/03/11 02:44:12;;;;;;;4.63;3.88;;;;;;;;;;5029377;28;59367;-70
2024/03/11 02:46:37;;;;;;;5.53;4.93;;;;;;;;;;5027577;28;59393;-70
2024/03/11 02:49:03;;;;;;;5.23;4.73;;;;;;;;;;5027793;28;59547;-70
2024/03/11 02:51:30;;;;;;;5.78;5.18;;;;;;;;;;5034496;27;59309;-70
2024/03/11 02:53:56;;;;;;;4.60;4.18;;;;;;;;;;5031976;28;60392;-70
2024/03/11 02:56:22;;;;;;;5.18;4.68;;;;;;;;;;5005619;28;59345;-70
2024/03/11 02:58:47;;;;;;;5.75;5.13;;;;;;;;;;5011015;28;59088;-70
2024/03/11 03:01:13;;;;;;;6.13;5.28;;;;;;;;;;5016632;28;59482;-70
2024/03/11 03:03:38;;;;;;;4.63;4.15;;;;;;;;;;5030332;28;59231;-70
2024/03/11 03:06:03;;;;;;;4.45;4.05;;;;;;;;;;5033377;27;59499;-70
2024/03/11 03:08:28;;;;;;;5.27;4.73;;;;;;;;;;5031572;28;60113;-70
2024/03/11 03:10:53;;;;;;;5.82;4.82;;;;;;;;;;5031411;28;59872;-70
2024/03/11 03:13:19;;;;;;;5.30;4.77;;;;;;;;;;5031467;28;60588;-70
2024/03/11 03:15:44;;;;;;;4.07;3.72;;;;;;;;;;5030270;28;59771;-70
2024/03/11 03:18:10;;;;;;;4.22;3.83;;;;;;;;;;5027769;27;59337;-70
2024/03/11 03:20:35;;;;;;;4.33;3.93;;;;;;;;;;5029841;28;60245;-70
2024/03/11 03:23:01;;;;;;;4.97;4.30;;;;;;;;;;5028048;28;59243;-70
2024/03/11 03:25:32;;;;;;;4.87;4.30;;;;;;;;;;5033493;28;59186;-70
2024/03/11 03:27:58;;;;;;;5.70;4.70;;;;;;;;;;5027806;28;61173;-70
2024/03/11 03:30:23;;;;;;;4.97;4.47;;;;;;;;;;5029449;28;59262;-70
2024/03/11 03:32:48;;;;;;;4.45;4.05;;;;;;;;;;5029895;28;59208;-70
2024/03/11 03:35:14;;;;;;;5.07;4.30;;;;;;;;;;5026624;28;59832;-70
2024/03/11 03:37:39;;;;;;;5.13;4.65;;;;;;;;;;5033346;28;59168;-70
2024/03/11 03:40:15;;;;;;;4.93;4.40;;;;;;;;;;5031676;28;60333;-70
2024/03/11 03:42:40;;;;;;;5.40;4.90;;;;;;;;;;5030417;28;59254;-70
2024/03/11 03:45:09;;;;;;;3.70;3.40;;;;;;;;;;5035018;28;59271;-71
2024/03/11 03:47:35;;;;;;;4.18;3.78;;;;;;;;;;5031319;28;60528;-70
2024/03/11 03:50:00;;;;;;;4.38;3.97;;;;;;;;;;5033758;28;59502;-72
2024/03/11 03:52:25;;;;;;;4.38;3.97;;;;;;;;;;5032504;28;59244;-70
2024/03/11 03:54:51;;;;;;;4.20;3.80;;;;;;;;;;5017699;28;60163;-70
2024/03/11 03:57:17;;;;;;;4.50;4.10;;;;;;;;;;5006528;28;59113;-70
2024/03/11 03:59:42;;;;;;;4.63;4.22;;;;;;;;;;5010889;28;60115;-70
2024/03/11 04:02:08;;;;;;;3.60;3.30;;;;;;;;;;5031135;28;59292;-70
2024/03/11 04:04:33;;;;;;;4.03;3.70;;;;;;;;;;5029973;27;59101;-70
2024/03/11 04:06:58;;;;;;;4.53;4.13;;;;;;;;;;5031718;28;60380;-70
2024/03/11 04:09:23;;;;;;;4.15;3.60;;;;;;;;;;5032585;28;59405;-70
2024/03/11 04:11:48;;;;;;;4.50;3.77;;;;;;;;;;5032744;28;59308;-70
2024/03/11 04:14:13;;;;;;;3.87;3.53;;;;;;;;;;5033604;28;64427;-70
2024/03/11 04:16:38;;;;;;;4.15;3.75;;;;;;;;;;5031132;27;59323;-70
2024/03/11 04:19:05;;;;;;;3.90;3.60;;;;;;;;;;5030112;28;61268;-70
2024/03/11 04:21:33;;;;;;;4.82;4.20;;;;;;;;;;5025470;28;59542;-70
2024/03/11 04:23:59;;;;;;;4.40;4.00;;;;;;;;;;5030925;28;59294;-70
2024/03/11 04:26:24;;;;;;;4.20;3.80;;;;;;;;;;5032066;28;61108;-71
2024/03/11 04:28:49;;;;;;;4.00;3.57;;;;;;;;;;5031724;28;59841;-70
2024/03/11 04:31:14;;;;;;;5.23;4.57;;;;;;;;;;5032859;27;59322;-70
2024/03/11 04:33:40;;;;;;;4.20;3.73;;;;;;;;;;5033462;27;60916;-70
2024/03/11 04:36:06;;;;;;;4.28;3.88;;;;;;;;;;5024148;28;59253;-71
2024/03/11 04:38:31;;;;;;;4.40;3.90;;;;;;;;;;5013171;28;59253;-71
2024/03/11 04:40:56;;;;;;;4.67;4.20;;;;;;;;;;5024990;28;59387;-70
2024/03/11 04:43:22;;;;;;;3.67;3.37;;;;;;;;;;5010412;28;59325;-70
2024/03/11 04:45:47;;;;;;;3.60;3.30;;;;;;;;;;5006618;28;60116;-70
2024/03/11 04:48:13;;;;;;;4.13;3.72;;;;;;;;;;5006131;28;59802;-70
2024/03/11 04:50:40;;;;;;;4.60;3.72;;;;;;;;;;5032596;28;59737;-71
2024/03/11 04:53:05;;;;;;;4.03;3.70;;;;;;;;;;5028378;28;60079;-70
2024/03/11 04:55:31;;;;;;;4.20;3.67;;;;;;;;;;5027579;28;59816;-72
2024/03/11 04:57:57;;;;;;;4.22;3.70;;;;;;;;;;5030708;28;59280;-70
2024/03/11 05:00:29;;;;;;;4.20;3.83;;;;;;;;;;5029479;28;59227;-70
2024/03/11 05:02:55;;;;;;;4.15;3.75;;;;;;;;;;5028314;28;59291;-70
2024/03/11 05:05:21;;;;;;;4.22;3.83;;;;;;;;;;5031775;28;59235;-70
2024/03/11 05:07:46;;;;;;;4.30;3.90;;;;;;;;;;5027845;28;59909;-70
2024/03/11 05:10:12;;;;;;;3.90;3.47;;;;;;;;;;5027784;28;59294;-70
2024/03/11 05:12:37;;;;;;;4.35;3.38;;;;;;;;;;5025278;28;60111;-70
2024/03/11 05:15:05;;;;;;;3.70;3.35;;;;;;;;;;5025276;28;59744;-70
2024/03/11 05:17:30;;;;;;;4.33;3.40;;;;;;;;;;5026056;28;59183;-70
2024/03/11 05:19:55;;;;;;;4.37;3.97;;;;;;;;;;5027112;28;61040;-70
2024/03/11 05:22:23;;;;;;;5.00;4.50;;;;;;;;;;5027906;28;59228;-70
2024/03/11 05:24:48;;;;;;;5.85;4.28;;;;;;;;;;5026682;27;59504;-71
2024/03/11 05:27:13;;;;;;;4.78;3.72;;;;;;;;;;5033466;27;59239;-70
2024/03/11 05:29:38;;;;;;;5.77;4.27;;;;;;;;;;5027646;28;59307;-67
2024/03/11 05:32:04;;;;;;;6.18;3.45;;;;;;;;;;5023436;28;59167;-66
2024/03/11 05:34:29;;;;;;;4.47;3.83;;;;;;;;;;5015578;28;59597;-65
2024/03/11 05:36:54;;;;;;;4.10;3.77;;;;;;;;;;5016161;28;59447;-66
2024/03/11 05:39:20;;;;;;;3.40;3.10;;;;;;;;;;5034385;28;59481;-68
2024/03/11 05:41:45;;;;;;;8.57;5.30;;;;;;;;;;5028130;28;59485;-68
2024/03/11 05:44:10;;;;;;;6.30;4.77;;;;;;;;;;5009266;28;61257;-68
2024/03/11 05:46:35;;;;;;;5.40;3.80;;;;;;;;;;5018460;28;59214;-68
2024/03/11 05:49:00;;;;;;;3.87;3.10;;;;;;;;;;5024129;28;59166;-69
2024/03/11 05:51:28;;;;;;;4.33;3.93;;;;;;;;;;5030190;28;60260;-68
2024/03/11 05:53:56;;;;;;;;;;;;;;;;;;5026931;28;59881;-68
2024/03/11 05:56:22;;;;;;;5.35;4.85;;;;;;;;;;5027414;28;59275;-68
2024/03/11 05:58:47;;;;;;;7.25;4.80;;;;;;;;;;5024721;28;61199;-68
2024/03/11 06:01:13;;;;;;;7.93;5.00;;;;;;;;;;5030917;28;59329;-68
2024/03/11 06:03:38;;;;;;;4.40;3.92;;;;;;;;;;5032025;28;59183;-68
2024/03/11 06:06:03;;;;;;;5.97;4.40;;;;;;;;;;5026855;28;59238;-68
2024/03/11 06:08:28;;;;;;;7.07;4.83;;;;;;;;;;5033753;28;59104;-68
2024/03/11 06:10:54;;;;;;;6.15;4.55;;;;;;;;;;5028231;28;61168;-68
2024/03/11 06:13:21;;;;;;;6.53;4.95;;;;;;;;;;5027973;28;59229;-68
2024/03/11 06:15:46;;;;;;;4.88;4.35;;;;;;;;;;5032490;28;59169;-68
2024/03/11 06:18:11;;;;;;;5.15;3.95;;;;;;;;;;5027177;28;59190;-68
2024/03/11 06:20:36;;;;;;;6.25;4.05;;;;;;;;;;5027497;28;60153;-68
2024/03/11 06:23:02;;;;;;;12.93;5.23;;;;;;;;;;5029199;28;59190;-68
2024/03/11 06:25:27;;;;;;;4.20;3.25;;;;;;;;;;5023813;28;60995;-68
2024/03/11 06:27:54;;;;;;;7.55;3.92;;;;;;;;;;5028513;28;59287;-68
2024/03/11 06:30:20;;;;;;;4.50;3.38;;;;;;;;;;5031890;28;59378;-68
2024/03/11 06:32:48;;;;;;;6.35;4.10;;;;;;;;;;5026006;28;59861;-68
2024/03/11 06:35:13;;;;;;;;;;;;;;;;;;5012462;28;59229;-68
2024/03/11 06:37:39;;;;;;;5.00;3.67;;;;;;;;;;5000143;28;59775;-68
2024/03/11 06:40:04;;;;;;;4.50;3.17;;;;;;;;;;5009254;28;60162;-68
2024/03/11 06:42:29;;;;;;;5.50;3.80;;;;;;;;;;5024543;28;59573;-68
2024/03/11 06:44:55;;;;;;;4.73;3.80;;;;;;;;;;5022424;28;60293;-68
2024/03/11 06:47:20;;;;;;;5.13;4.13;;;;;;;;;;5028139;28;59140;-68
2024/03/11 06:49:45;;;;;;;4.23;3.50;;;;;;;;;;5029641;28;60265;-68
2024/03/11 06:52:10;;;;;;;6.82;3.55;;;;;;;;;;5035830;28;59250;-68
2024/03/11 06:54:38;;;;;;;5.33;3.67;;;;;;;;;;5015527;28;59467;-68
2024/03/11 06:57:05;;;;;;;3.60;3.30;;;;;;;;;;5007241;28;60070;-68
2024/03/11 06:59:31;;;;;;;3.47;3.17;;;;;;;;;;5031160;28;59399;-68
2024/03/11 07:01:56;;;;;;;4.70;4.18;;;;;;;;;;5022849;28;59175;-68
2024/03/11 07:04:21;;;;;;;5.73;3.77;;;;;;;;;;5034586;28;60097;-69
2024/03/11 07:06:48;;;;;;;4.97;3.50;;;;;;;;;;5031855;28;59678;-68
2024/03/11 07:09:15;;;;;;;5.63;3.70;;;;;;;;;;5026411;28;60188;-69
2024/03/11 07:11:40;;;;;;;3.78;3.40;;;;;;;;;;5007755;28;59821;-69
2024/03/11 07:14:07;;;;;;;3.55;3.15;;;;;;;;;;5028237;28;59226;-69
2024/03/11 07:16:32;;;;;;;3.72;3.42;;;;;;;;;;5031243;28;60459;-68
2024/03/11 07:18:58;;;;;;;6.47;4.53;;;;;;;;;;5024928;28;59045;-68
2024/03/11 07:21:28;;;;;;;4.28;3.40;;;;;;;;;;5027645;28;59049;-68
2024/03/11 07:23:53;;;;;;;4.45;3.90;;;;;;;;;;5027620;28;60315;-71
2024/03/11 07:26:18;;;;;;;6.05;3.22;;;;;;;;;;5034910;28;59365;-71
2024/03/11 07:28:44;;;;;;;5.88;3.13;;;;;;;;;;5029169;28;59315;-69
2024/03/11 07:31:09;;;;;;;3.72;3.05;;;;;;;;;;5028082;28;59785;-69
2024/03/11 07:33:36;;;;;;;3.88;3.15;;;;;;;;;;5031599;28;59283;-70
2024/03/11 07:36:03;;;;;;;4.32;3.75;;;;;;;;;;5029553;28;61214;-68
2024/03/11 07:38:28;;;;;;;3.95;3.40;;;;;;;;;;5035290;28;59256;-70
2024/03/11 07:40:53;;;;;;;3.87;3.47;;;;;;;;;;5031274;28;59262;-70
2024/03/11 07:43:18;;;;;;;4.53;3.63;;;;;;;;;;5032580;28;59454;-70
2024/03/11 07:45:44;;;;;;;4.45;3.45;;;;;;;;;;5030723;28;60024;-70
2024/03/11 07:48:15;;;;;;;3.50;3.13;;;;;;;;;;5031149;28;59355;-68
2024/03/11 07:50:40;;;;;;;3.58;3.28;;;;;;;;;;5031657;28;60240;-69
2024/03/11 07:53:05;;;;;;;5.03;3.30;;;;;;;;;;5031343;28;59342;-68
2024/03/11 07:55:33;;;;;;;5.68;2.83;;;;;;;;;;5008187;28;60022;-69
2024/03/11 07:57:58;;;;;;;2.97;2.67;;;;;;;;;;5000681;28;59310;-69
2024/03/11 08:00:29;;;;;;;4.17;3.33;;;;;;;;;;5009941;28;59323;-69
2024/03/11 08:02:54;;;;;;;6.75;3.95;;;;;;;;;;5028872;28;60319;-69
2024/03/11 08:05:21;;;;;;;3.83;3.08;;;;;;;;;;5030349;28;59322;-68
2024/03/11 08:07:47;;;;;;;3.53;2.95;;;;;;;;;;5026234;28;59240;-68
2024/03/11 08:10:13;;;;;;;5.43;3.45;;;;;;;;;;5026027;28;59616;-69
2024/03/11 08:12:39;;;;;;;8.02;3.72;;;;;;;;;;5028355;28;59301;-69
2024/03/11 08:15:06;;;;;;;3.67;3.25;;;;;;;;;;5023255;28;60919;-68
2024/03/11 08:17:31;;;;;;;3.08;2.78;;;;;;;;;;5004130;28;59420;-69
2024/03/11 08:19:56;;;;;;;4.77;3.63;;;;;;;;;;5022488;28;59340;-69
2024/03/11 08:22:21;;;;;;;4.25;3.55;;;;;;;;;;5023975;28;61841;-69
2024/03/11 08:24:47;;;;;;;3.78;3.33;;;;;;;;;;5030215;27;59127;-69
2024/03/11 08:27:15;;;;;;;7.03;3.35;;;;;;;;;;5031823;28;59243;-68
2024/03/11 08:29:40;;;;;;;3.80;3.08;;;;;;;;;;5033801;28;61098;-69
2024/03/11 08:32:06;;;;;;;3.53;2.87;;;;;;;;;;5029575;28;59107;-68
2024/03/11 08:34:31;;;;;;;3.90;2.97;;;;;;;;;;5036751;27;59370;-70
2024/03/11 08:36:56;;;;;;;5.03;3.70;;;;;;;;;;5023452;28;59267;-70
2024/03/11 08:39:22;;;;;;;4.60;3.45;;;;;;;;;;5016154;28;59327;-69
2024/03/11 08:41:47;;;;;;;4.15;3.67;;;;;;;;;;5022228;28;61104;-70
2024/03/11 08:44:14;;;;;;;3.58;3.28;;;;;;;;;;5025481;28;59132;-69
2024/03/11 08:46:39;;;;;;;3.85;3.35;;;;;;;;;;5002605;28;59221;-71
2024/03/11 08:49:04;;;;;;;3.93;3.27;;;;;;;;;;5006303;28;60331;-69
2024/03/11 08:51:29;;;;;;;3.95;3.47;;;;;;;;;;5005372;28;59251;-69
2024/03/11 08:53:55;;;;;;;5.47;3.30;;;;;;;;;;5000159;28;59239;-69
2024/03/11 08:56:21;;;;;;;3.97;3.57;;;;;;;;;;5036094;28;60093;-69
2024/03/11 08:58:50;;;;;;;4.20;3.58;;;;;;;;;;5033763;28;59340;-68
2024/03/11 09:01:15;;;;;;;4.53;3.05;;;;;;;;;;5036888;28;60155;-69
2024/03/11 09:03:41;;;;;;;4.00;3.35;;;;;;;;;;5029934;28;59601;-68
2024/03/11 09:06:06;;;;;;;5.30;3.03;;;;;;;;;;5033707;28;59254;-69
2024/03/11 09:08:31;;;;;;;4.73;4.20;;;;;;;;;;5026576;28;61073;-69
2024/03/11 09:10:56;;;;;;;3.83;3.53;;;;;;;;;;5029578;28;59381;-71
2024/03/11 09:13:21;;;;;;;3.53;2.90;;;;;;;;;;5029690;28;59492;-69
2024/03/11 09:15:46;;;;;;;4.80;3.63;;;;;;;;;;5033329;28;60085;-68
2024/03/11 09:18:11;;;;;;;3.10;2.75;;;;;;;;;;5030483;28;59323;-69
2024/03/11 09:20:37;;;;;;;3.40;3.10;;;;;;;;;;5032309;28;60267;-71
2024/03/11 09:23:02;;;;;;;3.20;2.87;;;;;;;;;;5028281;28;59333;-71
2024/03/11 09:25:29;;;;;;;3.57;3.27;;;;;;;;;;5029406;28;59281;-71
2024/03/11 09:28:00;;;;;;;4.28;3.88;;;;;;;;;;5031135;28;60363;-70
2024/03/11 09:30:28;;;;;;;3.17;2.65;;;;;;;;;;5028550;28;59353;-71
2024/03/11 09:32:55;;;;;;;4.38;3.28;;;;;;;;;;5029975;28;59116;-71
2024/03/11 09:35:20;;;;;;;3.90;2.72;;;;;;;;;;5036822;28;60388;-71
2024/03/11 09:37:46;;;;;;;3.10;2.83;;;;;;;;;;5033112;28;59287;-70
2024/03/11 09:40:11;;;;;;;2.67;2.47;;;;;;;;;;5036259;28;60167;-69
2024/03/11 09:42:37;;;;;;;4.47;2.75;;;;;;;;;;5032567;27;59082;-69
2024/03/11 09:45:06;;;;;;;4.17;3.27;;;;;;;;;;5034489;27;59266;-69
2024/03/11 09:47:31;;;;;;;4.10;3.13;;;;;;;;;;5029834;28;59991;-69
2024/03/11 09:49:57;;;;;;;3.22;3.03;;;;;;;;;;5028426;28;59384;-69
2024/03/11 09:52:24;;;;;;;4.15;3.22;;;;;;;;;;5031145;28;59290;-69
2024/03/11 09:54:49;;;;;;;3.25;2.95;;;;;;;;;;5014753;28;60286;-69
2024/03/11 09:57:15;;;;;;;3.30;3.00;;;;;;;;;;5007199;28;59592;-69
2024/03/11 09:59:41;;;;;;;3.78;2.78;;;;;;;;;;5007815;28;59176;-69
2024/03/11 10:02:11;;;;;;;2.95;2.75;;;;;;;;;;5000724;28;59889;-69
2024/03/11 10:04:37;;;;;;;3.28;2.80;;;;;;;;;;5001145;28;59341;-69
2024/03/11 10:07:09;;;;;;;3.10;2.80;;;;;;;;;;5001932;28;60056;-69
2024/03/11 10:09:44;;;;;;;3.30;2.80;;;;;;;;;;5000533;28;59356;-69
2024/03/11 10:12:09;;;;;;;3.65;2.78;;;;;;;;;;5006770;28;59146;-69
2024/03/11 10:14:35;;;;;;;3.10;2.80;;;;;;;;;;5005592;28;60278;-69
2024/03/11 10:17:17;;;;;;;2.83;2.55;;;;;;;;;;5030468;28;59794;-69
2024/03/11 10:19:58;;;;;;;3.45;3.15;;;;;;;;;;5030688;28;59131;-69
2024/03/11 10:22:33;;;;;;;3.30;3.00;;;;;;;;;;5029596;28;59424;-69
2024/03/11 10:25:00;;;;;;;3.33;3.03;;;;;;;;;;5029468;28;59288;-69
2024/03/11 10:27:39;;;;;;;3.30;3.00;;;;;;;;;;5028727;28;60539;-69
2024/03/11 10:30:21;;;;;;;3.35;3.08;;;;;;;;;;5028048;28;59188;-69
2024/03/11 10:32:55;;;;;;;3.60;3.30;;;;;;;;;;5032143;28;59277;-69
2024/03/11 10:35:20;;;;;;;3.40;3.10;;;;;;;;;;5031147;28;64604;-69
2024/03/11 10:37:45;;;;;;;3.42;3.13;;;;;;;;;;5014105;28;59563;-69
2024/03/11 10:40:17;;;;;;;3.10;2.80;;;;;;;;;;5018656;28;59374;-69
2024/03/11 10:42:49;;;;;;;2.70;2.50;;;;;;;;;;5030248;28;60717;-69
2024/03/11 10:45:28;;;;;;;3.22;2.92;;;;;;;;;;5029751;28;60127;-69
2024/03/11 10:47:53;;;;;;;3.30;2.83;;;;;;;;;;5028416;28;61247;-69
2024/03/11 10:50:20;;;;;;;2.72;2.53;;;;;;;;;;5031194;28;59160;-69
2024/03/11 10:52:48;;;;;;;3.50;3.08;;;;;;;;;;5025583;28;59260;-69
2024/03/11 10:55:14;;;;;;;3.45;3.15;;;;;;;;;;5025897;28;60723;-69
2024/03/11 10:57:39;;;;;;;3.05;2.70;;;;;;;;;;5034044;28;59417;-69
2024/03/11 11:00:40;;;;;;;3.35;2.97;;;;;;;;;;5029919;28;59300;-69
2024/03/11 11:03:07;;;;;;;3.33;2.97;;;;;;;;;;5028292;28;59952;-69
2024/03/11 11:05:36;;;;;;;3.42;3.13;;;;;;;;;;5027228;28;58992;-69
2024/03/11 11:08:04;;;;;;;3.05;2.75;;;;;;;;;;5032189;28;59231;-68
2024/03/11 11:10:29;;;;;;;;;;;;;;;;;;5033603;28;58965;-69
2024/03/11 11:12:55;;;;;;;2.67;2.47;;;;;;;;;;5031825;28;59612;-68
2024/03/11 11:15:20;;;;;;;3.65;3.35;;;;;;;;;;5030792;28;61038;-68
2024/03/11 11:17:47;;;;;;;3.60;3.10;;;;;;;;;;5023521;28;59238;-68
2024/03/11 11:20:37;;;;;;;3.13;2.83;;;;;;;;;;5024325;28;59241;-68
2024/03/11 11:23:04;;;;;;;4.10;3.28;;;;;;;;;;5031060;28;59313;-67
2024/03/11 11:25:40;;;;;;;2.97;2.78;;;;;;;;;;5031653;28;59255;-68
2024/03/11 11:28:13;;;;;;;3.22;2.92;;;;;;;;;;5027947;28;59338;-68
2024/03/11 11:30:38;;;;;;;3.20;2.90;;;;;;;;;;5029982;28;59596;-68
2024/03/11 11:33:04;;;;;;;2.95;2.63;;;;;;;;;;5024077;28;59245;-68
2024/03/11 11:35:33;;;;;;;2.70;2.50;;;;;;;;;;5030870;28;61079;-68
2024/03/11 11:38:18;;;;;;;2.97;2.67;;;;;;;;;;5028213;28;59391;-69
2024/03/11 11:40:43;;;;;;;2.95;2.67;;;;;;;;;;5030343;28;59292;-68
2024/03/11 11:43:20;;;;;;;3.10;2.80;;;;;;;;;;5034511;28;60319;-69
2024/03/11 11:45:47;;;;;;;3.17;2.97;;;;;;;;;;5032313;28;59185;-68
2024/03/11 11:48:14;;;;;;;3.67;2.80;;;;;;;;;;5031533;28;59147;-68
2024/03/11 11:50:41;;;;;;;2.80;2.60;;;;;;;;;;5030714;28;60541;-68
2024/03/11 11:53:06;;;;;;;3.05;2.75;;;;;;;;;;5027051;28;59253;-68
2024/03/11 11:55:32;;;;;;;2.97;2.67;;;;;;;;;;5011124;28;60216;-68
2024/03/11 11:58:07;;;;;;;3.08;2.78;;;;;;;;;;5011016;28;59278;-68
2024/03/11 12:00:32;;;;;;;2.58;2.38;;;;;;;;;;5031591;28;59343;-70
2024/03/11 12:02:57;;;;;;;3.35;3.10;;;;;;;;;;5027240;28;59995;-68
2024/03/11 12:05:23;;;;;;;3.38;3.08;;;;;;;;;;5029526;28;59283;-68
2024/03/11 12:07:50;;;;;;;3.40;3.10;;;;;;;;;;5013205;28;59371;-68
2024/03/11 12:10:15;;;;;;;4.00;3.65;;;;;;;;;;5022300;28;61071;-68
2024/03/11 12:12:48;;;;;;;3.20;2.75;;;;;;;;;;5036854;28;59418;-68
2024/03/11 12:15:16;;;;;;;3.70;3.30;;;;;;;;;;5028876;28;60491;-68
2024/03/11 12:18:02;;;;;;;3.85;3.30;;;;;;;;;;5031502;28;59264;-69
2024/03/11 12:22:55;;;;;;;2.80;2.60;;;;;;;;;;5028578;28;59288;-69
2024/03/11 12:25:21;;;;;;;3.50;3.20;;;;;;;;;;5021525;28;59365;-69
2024/03/11 12:27:51;;;;;;;3.35;3.05;;;;;;;;;;5022824;27;59270;-68
2024/03/11 12:30:18;;;;;;;3.25;2.95;;;;;;;;;;5021489;28;60381;-69
2024/03/11 12:32:44;;;;;;;3.05;2.80;;;;;;;;;;5002531;28;59098;-69
2024/03/11 12:35:12;;;;;;;2.90;2.60;;;;;;;;;;5004526;28;59216;-69
2024/03/11 12:37:38;;;;;;;3.33;3.03;;;;;;;;;;5021564;28;59427;-69
2024/03/11 12:40:07;;;;;;;3.58;3.13;;;;;;;;;;5033595;28;59425;-69
2024/03/11 12:42:33;;;;;;;3.25;2.95;;;;;;;;;;5033789;28;60380;-69
2024/03/11 12:45:00;;;;;;;3.20;2.88;;;;;;;;;;5031610;28;59552;-69
2024/03/11 12:47:25;;;;;;;3.58;3.28;;;;;;;;;;5031681;28;59224;-69
2024/03/11 12:49:50;;;;;;;3.00;2.80;;;;;;;;;;5030046;28;60036;-69
2024/03/11 12:52:17;;;;;;;3.17;2.85;;;;;;;;;;5027070;28;59307;-69
2024/03/11 12:54:43;;;;;;;3.33;3.00;;;;;;;;;;5021420;28;59056;-69
2024/03/11 12:57:10;;;;;;;2.97;2.75;;;;;;;;;;5033335;27;59511;-69
2024/03/11 12:59:37;;;;;;;3.92;3.50;;;;;;;;;;5029912;28;59237;-69
2024/03/11 13:02:06;;;;;;;3.47;3.17;;;;;;;;;;5031107;28;59393;-69
2024/03/11 13:04:33;;;;;;;3.70;3.40;;;;;;;;;;5036071;28;59063;-69
2024/03/11 13:07:01;;;;;;;3.45;3.15;;;;;;;;;;5034696;28;59309;-69
2024/03/11 13:09:27;;;;;;;2.92;2.63;;;;;;;;;;5034354;28;59598;-69
2024/03/11 13:11:59;;;;;;;3.00;2.72;;;;;;;;;;5029073;28;59255;-69
2024/03/11 13:14:24;;;;;;;3.88;3.50;;;;;;;;;;5026118;28;59093;-69
2024/03/11 13:16:53;;;;;;;3.20;3.00;;;;;;;;;;5027643;28;60351;-69
2024/03/11 13:19:18;;;;;;;3.95;3.65;;;;;;;;;;5032173;28;59222;-70
2024/03/11 13:21:49;;;;;;;4.38;3.38;;;;;;;;;;5032150;28;59991;-69
2024/03/11 13:24:14;;;;;;;4.47;4.07;;;;;;;;;;5035349;28;59279;-69
2024/03/11 13:26:40;;;;;;;5.28;4.78;;;;;;;;;;5033286;28;59380;-69
2024/03/11 13:29:05;;;;;;;5.07;4.57;;;;;;;;;;5029552;27;60381;-69
2024/03/11 13:31:31;;;;;;;6.87;5.63;;;;;;;;;;5024030;28;59331;-78
2024/03/11 13:33:57;;;;;;;3.97;3.55;;;;;;;;;;5026827;28;59227;-80
2024/03/11 13:36:22;;;;;;;5.27;4.27;;;;;;;;;;5025118;28;59874;-80
2024/03/11 13:38:47;;;;;;;4.83;4.33;;;;;;;;;;5019970;28;59750;-79
2024/03/11 13:41:13;;;;;;;7.13;4.30;;;;;;;;;;5031858;28;60181;-80
2024/03/11 13:43:39;;;;;;;5.03;4.53;;;;;;;;;;5019276;28;59350;-81
2024/03/11 13:46:05;;;;;;;5.28;4.05;;;;;;;;;;5018640;28;59258;-75
2024/03/11 13:48:30;;;;;;;5.82;4.45;;;;;;;;;;5029797;28;61078;-81
2024/03/11 13:50:56;;;;;;;4.97;4.45;;;;;;;;;;5026511;28;59406;-82
2024/03/11 13:53:22;;;;;;;7.95;5.00;;;;;;;;;;5016449;28;59329;-79
2024/03/11 13:55:49;;;;;;;8.50;5.13;;;;;;;;;;5015490;28;60904;-79
2024/03/11 13:58:15;;;;;;;4.95;3.80;;;;;;;;;;5015464;28;59740;-79
2024/03/11 14:00:41;;;;;;;6.43;4.07;;;;;;;;;;5021217;28;59294;-79
2024/03/11 14:03:07;;;;;;;5.95;4.55;;;;;;;;;;5024372;28;59785;-78
2024/03/11 14:05:34;;;;;;;5.43;4.00;;;;;;;;;;5018019;28;59442;-79
2024/03/11 14:07:59;;;;;;;7.32;3.90;;;;;;;;;;5027137;28;61337;-81
2024/03/11 14:10:25;;;;;;;4.47;4.07;;;;;;;;;;5020729;28;59607;-79
2024/03/11 14:12:50;;;;;;;5.60;3.47;;;;;;;;;;5023293;28;59373;-77
2024/03/11 14:15:16;;;;;;;4.50;4.10;;;;;;;;;;5027914;28;60644;-77
2024/03/11 14:17:45;;;;;;;8.03;4.57;;;;;;;;;;5026516;28;59364;-77
2024/03/11 14:20:20;;;;;;;5.00;4.03;;;;;;;;;;5026848;28;59313;-77
2024/03/11 14:22:49;;;;;;;5.65;4.38;;;;;;;;;;5019469;28;60294;-75
2024/03/11 14:25:15;;;;;;;5.95;4.03;;;;;;;;;;5016594;28;59172;-76
2024/03/11 14:27:41;;;;;;;5.50;3.90;;;;;;;;;;5016481;28;60417;-75
2024/03/11 14:30:08;;;;;;;4.68;4.28;;;;;;;;;;5014555;28;59371;-75
2024/03/11 14:32:33;;;;;;;4.53;4.05;;;;;;;;;;5027306;28;59281;-77
2024/03/11 14:34:59;;;;;;;7.45;3.97;;;;;;;;;;5027974;28;60286;-77
2024/03/11 14:37:24;;;;;;;5.55;4.90;;;;;;;;;;5025187;28;59399;-77
2024/03/11 14:39:54;;;;;;;4.40;3.85;;;;;;;;;;5021031;28;59344;-76
2024/03/11 14:42:20;;;;;;;4.35;3.95;;;;;;;;;;5010688;28;61190;-77
2024/03/11 14:44:47;;;;;;;4.13;3.75;;;;;;;;;;5025702;28;59448;-77